Decoded Metar for UKKM (GOSTOMEL in UKRAINE) (IATA:N/A) | Meteo·Mobile Aviation Weather
aviador You're here:

UKKM Decoded Metar

GOSTOMEL in UKRAINE
Report Time2019-09-23 08:30:00
UTC Time2019-09-23 08:57:13
Flight Rules mvfr MVFR
Wind060° at 6 kt
W.Decomp.*RWY 33: 0.5 kt HW 6.0 kt RCW
Visibility9999 m
Phenomena:N/A
Clouds:Broken 026 Hf
Expected CloudBase > 3,200 ft AGL from Temp-Dew spread
Ceiling2,600 ft
Temp09°C (ISA -5)
Dew Point01°C (58% RH)
AAT5.0°C
QNH1020 hPa
Density Alt-226 ft
Elevation515 ft
Report Wrong Elevation
Raw Report
UKKM 230830Z 06003MPS 040V130 9999 BKN026 09/01 Q1020 R33/CLRD70
NOSIG=

Extra information for UKKM:More info

Metar Taf Metar & Taf Last 4 Metars F.Rules Stats Wind Profile Meteogram Temp Stats Airport Information Weather charts Add Link Nearby VenuesMetar ALERT Operation Metar Decoded Social comments